createdAt,value
2017-12-20T00:01:35.087Z,15.53
2017-12-20T00:04:03.704Z,16.07
2017-12-20T00:06:32.276Z,11.67
2017-12-20T00:09:00.859Z,17.53
2017-12-20T00:11:29.481Z,13.77
2017-12-20T00:13:58.043Z,12.87
2017-12-20T00:16:26.621Z,14.67
2017-12-20T00:18:55.192Z,16.93
2017-12-20T00:21:23.717Z,13.50
2017-12-20T00:23:52.282Z,15.20
2017-12-20T00:26:20.900Z,13.53
2017-12-20T00:28:49.480Z,13.40
2017-12-20T00:31:18.037Z,15.63
2017-12-20T00:33:46.648Z,15.43
2017-12-20T00:36:15.213Z,13.73
2017-12-20T00:38:43.838Z,14.97
2017-12-20T00:41:13.217Z,14.70
2017-12-20T00:43:41.793Z,15.47
2017-12-20T00:46:10.368Z,16.07
2017-12-20T00:48:39.020Z,13.73
2017-12-20T00:51:07.546Z,13.43
2017-12-20T00:53:36.064Z,14.07
2017-12-20T00:56:04.759Z,12.43
2017-12-20T00:58:34.065Z,11.53
2017-12-20T01:01:03.408Z,10.63
2017-12-20T01:03:32.029Z,9.07
2017-12-20T01:06:00.625Z,11.00
2017-12-20T01:08:28.626Z,10.17
2017-12-20T01:10:57.264Z,10.80
2017-12-20T01:13:25.821Z,12.93
2017-12-20T01:15:54.372Z,13.10
2017-12-20T01:18:23.849Z,12.73
2017-12-20T01:20:52.390Z,10.67
2017-12-20T01:23:20.955Z,10.83
2017-12-20T01:25:50.652Z,10.37
2017-12-20T01:28:19.208Z,9.20
2017-12-20T01:30:47.800Z,13.57
2017-12-20T01:33:16.463Z,10.77
2017-12-20T01:35:44.989Z,11.87
2017-12-20T01:38:13.550Z,11.13
2017-12-20T01:40:41.527Z,12.00
2017-12-20T01:43:10.121Z,12.00
2017-12-20T01:45:38.698Z,12.17
2017-12-20T01:48:06.978Z,9.73
2017-12-20T01:50:35.583Z,11.43
2017-12-20T01:53:04.160Z,11.90
2017-12-20T01:55:32.168Z,10.93
2017-12-20T01:58:00.899Z,12.70
2017-12-20T02:00:29.477Z,11.87
2017-12-20T02:02:58.083Z,12.73
2017-12-20T02:05:26.679Z,12.40
2017-12-20T02:07:55.290Z,10.90
2017-12-20T02:10:24.617Z,10.93
2017-12-20T02:12:53.176Z,11.53
2017-12-20T02:15:22.572Z,11.07
2017-12-20T02:17:51.164Z,10.90
2017-12-20T02:20:20.037Z,10.20
2017-12-20T02:22:48.343Z,8.97
2017-12-20T02:25:17.440Z,12.23
2017-12-20T02:27:46.545Z,9.80
2017-12-20T02:30:15.255Z,11.03
2017-12-20T02:32:43.294Z,10.57
2017-12-20T02:35:11.588Z,13.23
2017-12-20T02:37:40.340Z,11.47
2017-12-20T02:40:08.314Z,13.50
2017-12-20T02:42:36.227Z,14.00
2017-12-20T02:45:04.982Z,11.50
2017-12-20T02:47:33.326Z,10.80
2017-12-20T02:50:02.085Z,13.63
2017-12-20T02:52:31.480Z,13.47
2017-12-20T02:55:00.512Z,14.00
2017-12-20T02:57:28.482Z,13.90
2017-12-20T02:59:56.419Z,13.43
2017-12-20T03:02:24.752Z,11.30
2017-12-20T03:04:53.069Z,10.63
2017-12-20T03:07:21.347Z,9.97
2017-12-20T03:09:49.995Z,10.70
2017-12-20T03:12:18.634Z,9.33
2017-12-20T03:14:47.721Z,9.80
2017-12-20T03:17:16.307Z,12.13
2017-12-20T03:19:44.903Z,10.30
2017-12-20T03:22:14.318Z,10.07
2017-12-20T03:24:43.673Z,12.10
2017-12-20T03:27:12.253Z,9.50
2017-12-20T03:29:40.842Z,10.37
2017-12-20T03:32:09.407Z,10.00
2017-12-20T03:34:37.987Z,7.93
2017-12-20T03:37:07.814Z,8.87
2017-12-20T03:39:37.271Z,9.20
2017-12-20T03:42:05.882Z,10.60
2017-12-20T03:44:34.473Z,12.57
2017-12-20T03:47:03.068Z,9.67
2017-12-20T03:49:31.607Z,11.23
2017-12-20T03:51:59.785Z,9.07
2017-12-20T03:54:27.777Z,10.10
2017-12-20T03:56:57.097Z,9.77
2017-12-20T03:59:25.703Z,8.77
2017-12-20T04:01:54.276Z,9.73
2017-12-20T04:04:22.866Z,13.20
2017-12-20T04:06:51.478Z,9.27
2017-12-20T04:09:20.055Z,12.03
2017-12-20T04:11:48.671Z,12.70
2017-12-20T04:14:17.271Z,12.03
2017-12-20T04:16:45.885Z,14.83
2017-12-20T04:19:14.409Z,11.97
2017-12-20T04:21:42.949Z,10.83
2017-12-20T04:24:12.342Z,9.43
2017-12-20T04:26:41.641Z,13.03
2017-12-20T04:29:10.229Z,12.70
2017-12-20T04:31:39.522Z,10.17
2017-12-20T04:34:08.095Z,11.03
2017-12-20T04:36:36.682Z,10.47
2017-12-20T04:39:04.660Z,13.30
2017-12-20T04:41:33.258Z,9.27
2017-12-20T04:44:01.849Z,14.13
2017-12-20T04:46:31.197Z,11.33
2017-12-20T04:48:59.794Z,11.67
2017-12-20T04:51:28.295Z,10.67
2017-12-20T04:53:56.927Z,11.40
2017-12-20T04:56:25.461Z,13.80
2017-12-20T04:58:54.021Z,12.47
2017-12-20T05:01:26.346Z,10.43
2017-12-20T05:03:55.782Z,11.30
2017-12-20T05:06:24.394Z,12.17
2017-12-20T05:08:52.954Z,10.43
2017-12-20T05:11:27.104Z,11.23
2017-12-20T05:13:55.698Z,10.83
2017-12-20T05:16:24.272Z,14.73
2017-12-20T05:18:53.030Z,21.07
2017-12-20T05:21:21.762Z,22.50
2017-12-20T05:23:50.367Z,23.93
2017-12-20T05:26:19.031Z,24.73
2017-12-20T05:28:47.783Z,17.63
2017-12-20T05:31:16.397Z,18.17
2017-12-20T05:33:44.976Z,14.63
2017-12-20T05:36:13.512Z,18.73
2017-12-20T05:38:42.126Z,20.87
2017-12-20T05:41:11.461Z,16.53
2017-12-20T05:43:40.504Z,16.07
2017-12-20T05:46:09.064Z,26.87
2017-12-20T05:48:37.544Z,23.43
2017-12-20T05:51:06.073Z,21.37
2017-12-20T05:53:35.324Z,18.67
2017-12-20T05:56:03.865Z,16.93
2017-12-20T05:58:33.119Z,17.17
2017-12-20T06:01:01.602Z,18.30
2017-12-20T06:03:30.122Z,17.03
2017-12-20T06:05:58.604Z,15.40
2017-12-20T06:08:27.129Z,14.53
2017-12-20T06:10:55.613Z,11.97
2017-12-20T06:13:24.093Z,12.97
2017-12-20T06:15:52.617Z,27.83
2017-12-20T06:18:23.117Z,20.93
2017-12-20T06:20:51.666Z,24.00
2017-12-20T06:23:20.931Z,20.47
2017-12-20T06:25:49.409Z,17.23
2017-12-20T06:28:17.920Z,19.00
2017-12-20T06:30:46.400Z,18.10
2017-12-20T06:33:14.928Z,14.83
2017-12-20T06:35:43.404Z,16.20
2017-12-20T06:38:11.880Z,15.87
2017-12-20T06:40:41.155Z,12.00
2017-12-20T06:43:09.647Z,22.63
2017-12-20T06:45:38.172Z,11.73
2017-12-20T06:48:06.664Z,19.23
2017-12-20T06:50:35.149Z,13.47
2017-12-20T06:53:03.677Z,20.70
2017-12-20T06:55:32.161Z,11.27
2017-12-20T06:58:00.694Z,11.70
2017-12-20T07:00:29.175Z,11.97
2017-12-20T07:02:58.687Z,11.07
2017-12-20T07:05:27.205Z,13.40
2017-12-20T07:07:55.693Z,11.97
2017-12-20T07:10:24.217Z,14.47
2017-12-20T07:12:53.464Z,12.30
2017-12-20T07:15:22.274Z,8.50
2017-12-20T07:17:50.802Z,9.27
2017-12-20T07:20:19.282Z,8.47
2017-12-20T07:22:48.904Z,7.73
2017-12-20T07:25:17.391Z,7.53
2017-12-20T07:27:45.880Z,7.20
2017-12-20T07:30:14.441Z,7.40
2017-12-20T07:32:42.919Z,9.80
2017-12-20T07:35:16.740Z,13.60
2017-12-20T07:37:46.299Z,16.17
2017-12-20T07:40:14.789Z,15.27
2017-12-20T07:42:43.352Z,10.17
2017-12-20T07:45:21.422Z,11.47
2017-12-20T07:47:49.990Z,13.63
2017-12-20T07:50:18.582Z,11.37
2017-12-20T07:52:47.887Z,9.07
2017-12-20T07:55:17.232Z,10.47
2017-12-20T07:57:45.803Z,11.10
2017-12-20T08:00:14.440Z,11.53
2017-12-20T08:02:43.015Z,8.87
2017-12-20T08:05:11.602Z,11.47
2017-12-20T08:07:40.243Z,12.87
2017-12-20T08:10:08.811Z,13.67
2017-12-20T08:12:38.200Z,10.03
2017-12-20T08:15:06.767Z,15.90
2017-12-20T08:17:35.324Z,15.47
2017-12-20T08:20:03.932Z,11.77
2017-12-20T08:22:32.467Z,11.40
2017-12-20T08:25:01.119Z,18.00
2017-12-20T08:27:29.741Z,15.27
2017-12-20T08:29:58.350Z,14.73
2017-12-20T08:32:26.937Z,13.67
2017-12-20T08:34:55.532Z,13.77
2017-12-20T08:37:24.958Z,14.30
2017-12-20T08:39:53.527Z,12.77
2017-12-20T08:42:22.881Z,13.27
2017-12-20T08:44:52.254Z,11.60
2017-12-20T08:47:21.276Z,12.87
2017-12-20T08:49:49.932Z,14.90
2017-12-20T08:52:18.590Z,17.23
2017-12-20T08:54:47.529Z,12.63
2017-12-20T08:57:16.167Z,12.13
2017-12-20T08:59:44.767Z,11.87
2017-12-20T09:02:13.495Z,12.03
2017-12-20T09:04:42.068Z,13.10
2017-12-20T09:07:10.664Z,11.40
2017-12-20T09:09:39.290Z,11.50
2017-12-20T09:12:08.601Z,9.50
2017-12-20T09:14:37.244Z,13.07
2017-12-20T09:17:05.767Z,8.63
2017-12-20T09:19:34.335Z,8.67
2017-12-20T09:22:03.690Z,10.37
2017-12-20T09:24:32.287Z,8.30
2017-12-20T09:27:00.951Z,10.07
2017-12-20T09:29:29.496Z,9.33
2017-12-20T09:31:58.825Z,8.03
2017-12-20T09:34:27.437Z,10.07
2017-12-20T09:36:56.015Z,9.37
2017-12-20T09:39:24.658Z,10.07
2017-12-20T09:42:01.430Z,8.77
2017-12-20T09:44:30.123Z,9.93
2017-12-20T09:46:58.698Z,11.93
2017-12-20T09:49:27.266Z,9.87
2017-12-20T09:51:55.833Z,10.53
2017-12-20T09:54:24.385Z,9.97
2017-12-20T09:56:53.022Z,13.90
2017-12-20T09:59:21.609Z,12.23
2017-12-20T10:01:50.191Z,9.57
2017-12-20T10:04:18.783Z,9.33
2017-12-20T10:06:47.351Z,10.13
2017-12-20T10:09:15.985Z,10.60
2017-12-20T10:11:44.624Z,9.27
2017-12-20T10:14:12.958Z,7.00
2017-12-20T10:16:42.319Z,7.73
2017-12-20T10:19:10.881Z,9.37
2017-12-20T10:21:39.691Z,9.37
2017-12-20T10:24:08.394Z,10.73
2017-12-20T10:26:36.978Z,8.23
2017-12-20T10:29:05.573Z,7.20
2017-12-20T10:31:34.176Z,7.40
2017-12-20T10:34:02.873Z,6.93
2017-12-20T10:36:32.238Z,9.13
2017-12-20T10:39:00.812Z,9.10
2017-12-20T10:41:29.431Z,8.40
2017-12-20T10:43:58.096Z,8.23
2017-12-20T10:46:26.835Z,10.40
2017-12-20T10:48:55.424Z,5.40
2017-12-20T10:51:24.791Z,4.07
2017-12-20T10:53:53.412Z,6.87
2017-12-20T10:56:23.422Z,4.73
2017-12-20T11:01:46.271Z,6.90
2017-12-20T11:04:17.367Z,5.47
2017-12-20T11:06:45.932Z,5.80
2017-12-20T11:09:14.520Z,5.47
2017-12-20T11:11:43.146Z,4.10
2017-12-20T11:14:11.698Z,3.60
2017-12-20T11:16:40.404Z,4.33
2017-12-20T11:19:08.985Z,4.77
2017-12-20T11:21:37.234Z,4.07
2017-12-20T11:24:05.840Z,7.17
2017-12-20T11:26:34.444Z,3.97
2017-12-20T11:29:03.083Z,5.40
2017-12-20T11:31:31.384Z,7.40
2017-12-20T11:33:59.986Z,5.87
2017-12-20T11:36:29.351Z,5.00
2017-12-20T11:38:57.996Z,5.67
2017-12-20T11:41:26.645Z,6.03
2017-12-20T11:43:55.231Z,4.10
2017-12-20T11:46:24.630Z,4.97
2017-12-20T11:48:53.247Z,5.77
2017-12-20T11:51:22.614Z,5.00
2017-12-20T11:53:51.225Z,4.93
2017-12-20T11:56:20.567Z,5.03
2017-12-20T11:58:49.134Z,5.87
2017-12-20T12:01:17.480Z,5.40
2017-12-20T12:03:46.077Z,7.40
2017-12-20T12:06:14.796Z,7.47
2017-12-20T12:08:43.396Z,6.20
2017-12-20T12:11:11.984Z,6.97
2017-12-20T12:13:40.574Z,6.10
2017-12-20T12:16:09.191Z,6.43
2017-12-20T12:18:37.808Z,5.93
2017-12-20T12:21:07.126Z,6.17
2017-12-20T12:23:35.783Z,6.83
2017-12-20T12:26:04.451Z,11.00
2017-12-20T12:28:33.061Z,8.67
2017-12-20T12:31:02.481Z,19.80
2017-12-20T12:33:31.070Z,22.57
2017-12-20T12:35:59.660Z,18.53
2017-12-20T12:38:28.247Z,9.47
2017-12-20T12:40:56.250Z,8.50
2017-12-20T12:43:28.768Z,7.90
2017-12-20T12:45:57.341Z,8.23
2017-12-20T12:48:25.960Z,9.40
2017-12-20T12:50:55.313Z,7.60
2017-12-20T12:53:23.935Z,9.90
2017-12-20T12:55:52.599Z,7.40
2017-12-20T12:58:21.180Z,8.07
2017-12-20T13:00:49.773Z,8.53
2017-12-20T13:03:18.407Z,8.77
2017-12-20T13:05:46.973Z,9.77
2017-12-20T13:08:15.563Z,11.87
2017-12-20T13:10:44.869Z,9.37
2017-12-20T13:13:14.236Z,22.07
2017-12-20T13:15:42.866Z,15.97
2017-12-20T13:18:12.245Z,10.90
2017-12-20T13:20:40.855Z,11.90
2017-12-20T13:23:10.197Z,13.57
2017-12-20T13:25:38.787Z,10.70
2017-12-20T13:28:07.394Z,10.53
2017-12-20T13:30:35.989Z,13.03
2017-12-20T13:33:04.301Z,12.23
2017-12-20T13:35:33.634Z,13.07
2017-12-20T13:38:02.969Z,16.50
2017-12-20T13:40:31.585Z,20.33
2017-12-20T13:43:00.959Z,15.77
2017-12-20T13:45:29.695Z,18.10
2017-12-20T13:47:58.306Z,14.87
2017-12-20T13:50:26.610Z,13.43
2017-12-20T13:52:55.226Z,15.27
2017-12-20T13:55:23.853Z,17.83
2017-12-20T13:57:52.504Z,15.77
2017-12-20T14:00:20.523Z,17.90
2017-12-20T14:02:49.118Z,38.90
2017-12-20T14:05:17.728Z,23.63
2017-12-20T14:07:46.334Z,18.73
2017-12-20T14:10:15.760Z,15.47
2017-12-20T14:12:44.399Z,15.30
2017-12-20T14:15:13.036Z,19.17
2017-12-20T14:17:41.651Z,16.40
2017-12-20T14:20:11.008Z,15.90
2017-12-20T14:22:40.391Z,15.83
2017-12-20T14:25:08.990Z,17.27
2017-12-20T14:27:37.599Z,14.53
2017-12-20T14:30:06.293Z,13.67
2017-12-20T14:32:34.892Z,12.47
2017-12-20T14:35:03.479Z,12.17
2017-12-20T14:37:32.126Z,11.90
2017-12-20T14:40:00.731Z,10.73
2017-12-20T14:42:30.083Z,13.70
2017-12-20T14:44:58.658Z,13.10
2017-12-20T14:47:27.228Z,13.90
2017-12-20T14:49:55.802Z,13.87
2017-12-20T14:52:24.395Z,17.10
2017-12-20T14:54:53.022Z,18.77
2017-12-20T14:57:21.301Z,18.97
2017-12-20T14:59:49.917Z,19.67
2017-12-20T15:02:18.529Z,19.23
2017-12-20T15:04:47.121Z,20.40
2017-12-20T15:07:15.708Z,19.73
2017-12-20T15:09:44.270Z,17.97
2017-12-20T15:12:13.666Z,16.97
2017-12-20T15:14:42.119Z,16.90
2017-12-20T15:17:10.766Z,16.83
2017-12-20T15:19:49.950Z,18.07
2017-12-20T15:22:18.631Z,44.00
2017-12-20T15:24:47.377Z,45.53
2017-12-20T15:27:16.315Z,37.03
2017-12-20T15:29:44.996Z,29.77
2017-12-20T15:32:13.647Z,30.67
2017-12-20T15:34:42.745Z,30.03
2017-12-20T15:37:11.321Z,34.23
2017-12-20T15:39:40.675Z,26.23
2017-12-20T15:42:08.681Z,34.63
2017-12-20T15:44:37.279Z,35.30
2017-12-20T15:47:06.791Z,31.97
2017-12-20T15:49:36.120Z,31.23
2017-12-20T15:52:04.726Z,26.43
2017-12-20T15:54:33.366Z,30.10
2017-12-20T15:57:02.697Z,39.57
2017-12-20T15:59:31.343Z,35.57
2017-12-20T16:01:59.958Z,32.53
2017-12-20T16:04:28.669Z,27.63
2017-12-20T16:06:57.317Z,26.47
2017-12-20T16:09:26.682Z,27.10
2017-12-20T16:11:55.325Z,31.17
2017-12-20T16:14:23.938Z,27.60
2017-12-20T16:16:52.595Z,33.90
2017-12-20T16:19:21.965Z,33.50
2017-12-20T16:21:54.188Z,32.63
2017-12-20T16:24:22.813Z,39.00
2017-12-20T16:26:51.426Z,33.83
2017-12-20T16:29:20.541Z,38.77
2017-12-20T16:31:49.902Z,32.03
2017-12-20T16:34:18.697Z,27.57
2017-12-20T16:36:47.360Z,20.60
2017-12-20T16:39:15.953Z,22.23
2017-12-20T16:41:44.577Z,23.90
2017-12-20T16:44:13.232Z,33.30
2017-12-20T16:46:41.820Z,31.43
2017-12-20T16:49:10.508Z,29.43
2017-12-20T16:51:39.164Z,26.00
2017-12-20T16:54:07.886Z,25.47
2017-12-20T16:56:36.545Z,22.37
2017-12-20T16:59:05.138Z,20.07
2017-12-20T17:01:33.791Z,17.57
2017-12-20T17:04:03.203Z,18.93
2017-12-20T17:06:32.560Z,17.90
2017-12-20T17:09:02.204Z,16.90
2017-12-20T17:11:30.844Z,20.13
2017-12-20T17:13:59.468Z,19.07
2017-12-20T17:16:28.067Z,15.17
2017-12-20T17:18:57.200Z,16.63
2017-12-20T17:21:25.806Z,18.67
2017-12-20T17:23:54.393Z,17.57
2017-12-20T17:26:23.141Z,18.27
2017-12-20T17:28:52.454Z,19.33
2017-12-20T17:31:21.074Z,21.03
2017-12-20T17:33:49.797Z,18.80
2017-12-20T17:36:18.499Z,20.37
2017-12-20T17:38:48.019Z,22.13
2017-12-20T17:41:17.399Z,18.43
2017-12-20T17:43:47.883Z,18.63
2017-12-20T17:46:16.546Z,20.63
2017-12-20T17:48:45.231Z,19.90
2017-12-20T17:51:14.684Z,18.07
2017-12-20T17:53:43.370Z,19.17
2017-12-20T17:56:12.175Z,19.80
2017-12-20T17:58:40.830Z,21.47
2017-12-20T18:01:08.833Z,20.60
2017-12-20T18:03:38.604Z,22.03
2017-12-20T18:06:07.276Z,23.90
2017-12-20T18:08:36.693Z,25.53
2017-12-20T18:11:05.345Z,26.37
2017-12-20T18:13:33.971Z,24.90
2017-12-20T18:16:02.591Z,22.20
2017-12-20T18:18:31.179Z,20.93
2017-12-20T18:20:59.907Z,23.87
2017-12-20T18:23:28.497Z,26.73
2017-12-20T18:25:57.996Z,24.67
2017-12-20T18:28:27.401Z,25.07
2017-12-20T18:30:56.336Z,24.50
2017-12-20T18:33:24.984Z,23.73
2017-12-20T18:35:53.573Z,23.57
2017-12-20T18:38:22.169Z,22.50
2017-12-20T18:40:51.544Z,25.60
2017-12-20T18:43:20.170Z,24.63
2017-12-20T18:45:48.848Z,24.37
2017-12-20T18:48:18.259Z,21.80
2017-12-20T18:50:46.871Z,19.53
2017-12-20T18:53:15.535Z,20.50
2017-12-20T18:55:44.254Z,22.07
2017-12-20T18:58:12.875Z,21.27
2017-12-20T19:00:41.500Z,24.93
2017-12-20T19:03:10.117Z,20.10
2017-12-20T19:05:40.763Z,22.10
2017-12-20T19:08:09.386Z,23.27
2017-12-20T19:10:38.058Z,23.77
2017-12-20T19:13:06.645Z,28.17
2017-12-20T19:15:35.505Z,24.87
2017-12-20T19:18:04.141Z,30.47
2017-12-20T19:20:32.487Z,27.40
2017-12-20T19:23:01.161Z,26.37
2017-12-20T19:25:29.822Z,27.93
2017-12-20T19:27:59.215Z,30.50
2017-12-20T19:30:28.302Z,26.70
2017-12-20T19:32:56.941Z,30.83
2017-12-20T19:35:25.657Z,26.67
2017-12-20T19:37:54.316Z,24.33
2017-12-20T19:40:22.921Z,24.47
2017-12-20T19:42:51.590Z,23.67
2017-12-20T19:45:20.195Z,23.63
2017-12-20T19:47:48.993Z,30.53
2017-12-20T19:50:17.634Z,25.43
2017-12-20T19:52:46.208Z,25.50
2017-12-20T19:55:15.590Z,20.43
2017-12-20T19:57:46.336Z,23.73
2017-12-20T20:00:15.690Z,25.93
2017-12-20T20:02:44.357Z,25.73
2017-12-20T20:05:12.985Z,25.60
2017-12-20T20:07:41.613Z,24.10
2017-12-20T20:10:10.198Z,22.73
2017-12-20T20:12:39.597Z,26.93
2017-12-20T20:15:08.165Z,27.30
2017-12-20T20:17:38.891Z,23.53
2017-12-20T20:20:07.557Z,19.57
2017-12-20T20:22:36.124Z,19.50
2017-12-20T20:25:04.777Z,18.40
2017-12-20T20:27:34.097Z,20.23
2017-12-20T20:30:02.723Z,21.40
2017-12-20T20:32:31.290Z,20.27
2017-12-20T20:34:59.827Z,68.77
2017-12-20T20:37:28.442Z,38.17
2017-12-20T20:39:57.806Z,28.80
2017-12-20T20:42:26.452Z,27.97
2017-12-20T20:44:55.054Z,24.20
2017-12-20T20:47:23.621Z,28.70
2017-12-20T20:49:59.569Z,22.73
2017-12-20T20:52:28.923Z,26.47
2017-12-20T20:54:57.519Z,22.87
2017-12-20T20:57:26.445Z,26.13
2017-12-20T20:59:55.417Z,21.60
2017-12-20T21:02:24.133Z,25.40
2017-12-20T21:04:53.475Z,25.20
2017-12-20T21:07:22.345Z,25.57
2017-12-20T21:09:50.956Z,32.30
2017-12-20T21:12:19.680Z,28.13
2017-12-20T21:14:48.533Z,28.70
2017-12-20T21:17:17.206Z,27.23
2017-12-20T21:19:45.937Z,28.43
2017-12-20T21:22:15.009Z,27.13
2017-12-20T21:24:43.778Z,27.30
2017-12-20T21:27:12.461Z,26.83
2017-12-20T21:29:41.775Z,30.50
2017-12-20T21:32:10.822Z,29.87
2017-12-20T21:34:40.006Z,29.50
2017-12-20T21:37:09.030Z,24.90
2017-12-20T21:39:38.053Z,36.73
2017-12-20T21:42:07.033Z,31.23
2017-12-20T21:44:38.098Z,27.87
2017-12-20T21:47:06.849Z,32.40
2017-12-20T21:49:36.568Z,31.90
2017-12-20T21:52:05.451Z,33.80
2017-12-20T21:54:34.482Z,26.57
2017-12-20T21:57:03.301Z,24.10
2017-12-20T21:59:32.044Z,27.07
2017-12-20T22:02:01.654Z,22.93
2017-12-20T22:04:31.516Z,27.33
2017-12-20T22:07:00.737Z,27.63
2017-12-20T22:09:29.722Z,31.07
2017-12-20T22:11:58.741Z,28.90
2017-12-20T22:14:27.622Z,26.97
2017-12-20T22:16:56.422Z,31.60
2017-12-20T22:19:25.753Z,28.07
2017-12-20T22:21:55.251Z,30.60
2017-12-20T22:24:23.881Z,28.50
2017-12-20T22:26:53.106Z,31.77
2017-12-20T22:29:21.831Z,35.87
2017-12-20T22:31:50.617Z,32.77
2017-12-20T22:34:19.198Z,31.83
2017-12-20T22:36:47.982Z,30.43
2017-12-20T22:39:16.831Z,34.77
2017-12-20T22:41:45.903Z,41.03
2017-12-20T22:44:15.474Z,29.63
2017-12-20T22:46:44.323Z,30.37
2017-12-20T22:49:12.940Z,33.37
2017-12-20T22:51:41.573Z,32.27
2017-12-20T22:54:10.949Z,37.57
2017-12-20T22:56:39.570Z,30.10
2017-12-20T22:59:08.242Z,29.97
2017-12-20T23:01:36.834Z,25.37
2017-12-20T23:04:05.444Z,26.70
2017-12-20T23:06:34.061Z,31.63
2017-12-20T23:09:02.638Z,27.70
2017-12-20T23:11:31.311Z,27.17
2017-12-20T23:14:00.895Z,28.07
2017-12-20T23:16:29.528Z,25.17
2017-12-20T23:18:58.117Z,28.87
2017-12-20T23:21:26.684Z,28.83
2017-12-20T23:23:55.073Z,23.57
2017-12-20T23:26:23.673Z,24.07
2017-12-20T23:28:53.001Z,24.73
2017-12-20T23:31:21.608Z,28.20
2017-12-20T23:33:50.447Z,23.67
2017-12-20T23:36:19.045Z,20.70
2017-12-20T23:38:47.621Z,22.00
2017-12-20T23:41:16.495Z,19.37
2017-12-20T23:43:45.118Z,16.93
2017-12-20T23:46:13.702Z,17.97
2017-12-20T23:48:42.357Z,19.37
2017-12-20T23:51:10.979Z,22.50
2017-12-20T23:53:39.540Z,21.73
2017-12-20T23:56:08.123Z,20.23
2017-12-20T23:58:36.761Z,21.00
